Time;durP1;ratioP1;P1;durP2;ratioP2;P2;SDS_P1;SDS_P2;PMS_P1;PMS_P2;Temp;Humidity;BMP_temperature;BMP_pressure;BME280_temperature;BME280_humidity;BME280_pressure;Samples;Min_cycle;Max_cycle;Signal;HPM_P1;HPM_P2
2023/04/16 03:02:47;;;;;;;0.30;0.00;;;7.60;96.30;;;;;;5201280;23;88505;-72
2023/04/16 03:05:13;;;;;;;0.00;0.00;;;7.50;97.00;;;;;;4899447;28;88395;-73
2023/04/16 03:07:39;;;;;;;0.20;0.00;;;7.40;97.50;;;;;;4915256;28;87372;-72
2023/04/16 03:10:06;;;;;;;0.28;0.00;;;7.50;98.20;;;;;;4906801;28;88116;-72
2023/04/16 03:12:32;;;;;;;0.30;0.00;;;7.50;97.20;;;;;;4905504;28;88864;-74
2023/04/16 03:14:57;;;;;;;0.38;0.00;;;7.50;97.00;;;;;;4909554;28;87947;-74
2023/04/16 03:17:23;;;;;;;0.10;0.00;;;7.60;96.60;;;;;;4913993;28;88682;-74
2023/04/16 03:19:49;;;;;;;0.30;0.00;;;7.60;97.00;;;;;;4883580;28;88668;-78
2023/04/16 03:22:15;;;;;;;0.47;0.00;;;7.60;96.60;;;;;;4902993;28;88502;-73
2023/04/16 03:24:41;;;;;;;0.63;0.00;;;7.50;96.10;;;;;;4900701;28;87578;-73
2023/04/16 03:27:07;;;;;;;0.30;0.00;;;7.50;96.80;;;;;;4901970;28;87407;-73
2023/04/16 03:29:35;;;;;;;0.22;0.00;;;7.50;97.20;;;;;;4901450;28;89297;-72
2023/04/16 03:32:00;;;;;;;0.10;0.00;;;7.50;97.30;;;;;;4902959;28;88299;-72
2023/04/16 03:34:26;;;;;;;0.10;0.00;;;7.50;96.20;;;;;;4902202;28;87523;-75
2023/04/16 03:36:52;;;;;;;0.20;0.00;;;7.50;96.60;;;;;;4902429;28;87346;-74
2023/04/16 03:39:18;;;;;;;0.93;0.00;;;7.40;96.40;;;;;;4912512;28;88419;-71
2023/04/16 03:41:43;;;;;;;0.05;0.00;;;7.50;96.40;;;;;;4913223;28;87233;-72
2023/04/16 03:44:09;;;;;;;1.30;0.00;;;7.40;96.50;;;;;;4913362;28;87484;-73
2023/04/16 03:46:35;;;;;;;0.10;0.00;;;7.40;97.00;;;;;;4906849;28;86954;-72
2023/04/16 03:49:00;;;;;;;0.43;0.00;;;7.40;96.80;;;;;;4899337;28;88060;-74
2023/04/16 03:51:26;;;;;;;0.85;0.00;;;7.40;97.50;;;;;;4899367;28;87523;-73
2023/04/16 03:53:52;;;;;;;0.10;0.00;;;7.40;97.50;;;;;;4913019;28;88257;-73
2023/04/16 03:56:17;;;;;;;0.20;0.00;;;7.40;97.70;;;;;;4912557;28;87549;-71
2023/04/16 03:58:43;;;;;;;0.20;0.00;;;7.30;97.60;;;;;;4902786;28;87845;-71
2023/04/16 04:01:09;;;;;;;0.10;0.00;;;7.30;97.30;;;;;;4903205;28;87980;-70
2023/04/16 04:03:34;;;;;;;0.10;0.00;;;7.20;97.50;;;;;;4898690;28;87303;-70
2023/04/16 04:06:00;;;;;;;0.20;0.00;;;7.20;98.20;;;;;;4907014;28;87083;-71
2023/04/16 04:08:26;;;;;;;0.55;0.00;;;7.20;98.30;;;;;;4902689;28;88134;-70
2023/04/16 04:10:51;;;;;;;0.20;0.00;;;7.20;98.10;;;;;;4906262;28;87293;-70
2023/04/16 04:13:18;;;;;;;0.20;0.00;;;7.20;98.60;;;;;;4901698;28;87700;-71
2023/04/16 04:15:44;;;;;;;2.92;0.00;;;7.10;98.40;;;;;;4907276;28;87181;-76
2023/04/16 04:18:09;;;;;;;0.50;0.00;;;7.10;98.40;;;;;;4916589;28;89160;-74
2023/04/16 04:20:39;;;;;;;3.42;0.00;;;7.00;99.20;;;;;;4908895;28;87601;-73
2023/04/16 04:23:05;;;;;;;0.43;0.00;;;6.90;98.90;;;;;;4896283;28;87515;-73
2023/04/16 04:25:31;;;;;;;0.90;0.00;;;6.90;99.70;;;;;;4900848;28;87746;-71
2023/04/16 04:27:56;;;;;;;0.80;0.00;;;6.90;99.80;;;;;;4901853;28;88068;-73
2023/04/16 04:30:22;;;;;;;0.20;0.00;;;6.90;99.80;;;;;;4901862;28;87960;-73
2023/04/16 04:32:48;;;;;;;0.47;0.00;;;6.90;99.90;;;;;;4902086;28;87412;-72
2023/04/16 04:35:13;;;;;;;0.20;0.00;;;7.00;99.90;;;;;;4901775;28;87150;-72
2023/04/16 04:37:39;;;;;;;1.10;0.00;;;7.00;99.90;;;;;;4900643;28;88974;-72
2023/04/16 04:40:05;;;;;;;0.20;0.00;;;7.00;99.00;;;;;;4907527;28;88448;-71
2023/04/16 04:42:31;;;;;;;0.70;0.00;;;7.00;99.10;;;;;;4902650;28;88524;-71
2023/04/16 04:44:57;;;;;;;0.30;0.00;;;7.00;99.20;;;;;;4901418;28;87555;-71
2023/04/16 04:47:22;;;;;;;0.00;0.00;;;6.90;99.40;;;;;;4895515;28;88164;-70
2023/04/16 04:49:48;;;;;;;0.10;0.00;;;6.80;99.60;;;;;;4900823;28;87750;-71
2023/04/16 04:52:13;;;;;;;0.75;0.00;;;6.80;99.30;;;;;;4887082;28;88541;-70
2023/04/16 04:54:40;;;;;;;0.22;0.00;;;6.80;99.10;;;;;;4912450;28;87545;-72
2023/04/16 04:57:06;;;;;;;0.28;0.00;;;6.70;99.20;;;;;;4905566;28;88839;-74
2023/04/16 04:59:32;;;;;;;1.48;0.00;;;6.70;99.50;;;;;;4902334;28;87829;-72
2023/04/16 05:01:58;;;;;;;0.40;0.00;;;6.70;99.60;;;;;;4897985;28;88712;-72
2023/04/16 05:04:24;;;;;;;0.10;0.00;;;6.70;99.90;;;;;;4906152;28;89079;-72
2023/04/16 05:06:50;;;;;;;0.15;0.00;;;6.70;99.50;;;;;;4897364;28;88934;-72
2023/04/16 05:09:16;;;;;;;0.65;0.00;;;6.60;99.90;;;;;;4893703;28;88201;-70
2023/04/16 05:11:42;;;;;;;0.32;0.00;;;6.70;99.90;;;;;;4891128;28;87867;-75
2023/04/16 05:14:08;;;;;;;0.10;0.00;;;6.60;99.90;;;;;;4897495;28;87547;-72
2023/04/16 05:16:37;;;;;;;0.10;0.00;;;6.70;99.90;;;;;;4908773;28;88395;-70
2023/04/16 05:19:03;;;;;;;0.75;0.00;;;6.80;99.90;;;;;;4903421;28;87378;-71
2023/04/16 05:21:28;;;;;;;0.08;0.00;;;6.80;99.90;;;;;;4907069;28;87443;-71
2023/04/16 05:23:54;;;;;;;0.50;0.00;;;6.80;99.90;;;;;;4900008;28;86690;-71
2023/04/16 05:26:20;;;;;;;0.30;0.00;;;6.80;99.90;;;;;;4901787;28;88079;-70
2023/04/16 05:28:46;;;;;;;0.57;0.10;;;6.90;99.90;;;;;;4900252;28;87413;-70
2023/04/16 05:31:11;;;;;;;0.22;0.00;;;7.00;99.90;;;;;;4889122;28;89874;-70
2023/04/16 05:33:37;;;;;;;0.40;0.10;;;7.00;99.50;;;;;;4887894;28;87474;-70
2023/04/16 05:36:03;;;;;;;1.33;0.00;;;7.00;99.70;;;;;;4899937;28;88921;-72
2023/04/16 05:38:29;;;;;;;1.48;0.10;;;7.00;99.60;;;;;;4909902;28;87913;-70
2023/04/16 05:40:55;;;;;;;0.40;0.00;;;6.90;99.90;;;;;;4900812;28;87744;-71
2023/04/16 05:43:20;;;;;;;0.40;0.00;;;6.90;99.90;;;;;;4892713;28;87568;-74
2023/04/16 05:45:46;;;;;;;0.90;0.10;;;6.90;99.90;;;;;;4899659;28;87335;-70
2023/04/16 05:48:12;;;;;;;0.50;0.10;;;6.80;99.90;;;;;;4901260;28;87420;-71
2023/04/16 05:50:38;;;;;;;0.35;0.00;;;6.80;99.90;;;;;;4898921;28;87760;-69
2023/04/16 05:53:07;;;;;;;1.10;0.00;;;6.80;99.90;;;;;;4897129;28;87847;-71
2023/04/16 05:55:36;;;;;;;0.50;0.00;;;6.90;99.90;;;;;;4898518;28;89913;-70
2023/04/16 05:58:05;;;;;;;0.60;0.10;;;7.10;99.90;;;;;;4899826;28;88012;-71
2023/04/16 06:00:34;;;;;;;0.70;0.10;;;7.10;99.90;;;;;;4901026;28;87098;-71
2023/04/16 06:03:00;;;;;;;1.30;0.10;;;7.20;99.90;;;;;;4899943;28;87591;-71
2023/04/16 06:05:26;;;;;;;0.80;0.10;;;7.20;99.50;;;;;;4899329;28;88816;-72
2023/04/16 06:07:52;;;;;;;1.45;0.10;;;7.30;99.90;;;;;;4895569;28;87986;-70
2023/04/16 06:10:18;;;;;;;1.38;0.10;;;7.40;99.90;;;;;;4899865;28;87201;-71
2023/04/16 06:12:43;;;;;;;0.52;0.10;;;7.40;99.90;;;;;;4900715;28;86785;-71
2023/04/16 06:15:09;;;;;;;0.90;0.10;;;7.40;99.10;;;;;;4894142;28;87552;-70
2023/04/16 06:17:35;;;;;;;0.68;0.10;;;7.50;99.00;;;;;;4890439;28;87408;-69
2023/04/16 06:20:01;;;;;;;0.63;0.10;;;7.50;98.60;;;;;;4895167;28;91199;-71
2023/04/16 06:22:26;;;;;;;1.38;0.10;;;7.50;98.60;;;;;;4900582;28;87986;-71
2023/04/16 06:24:52;;;;;;;0.73;0.10;;;7.50;99.50;;;;;;4895365;28;88131;-73
2023/04/16 06:27:18;;;;;;;1.05;0.10;;;7.60;99.10;;;;;;4900042;28;87639;-70
2023/04/16 06:29:44;;;;;;;0.90;0.10;;;7.70;98.40;;;;;;4899560;28;87203;-72
2023/04/16 06:32:10;;;;;;;0.70;0.10;;;7.70;97.90;;;;;;4899615;28;86977;-71
2023/04/16 06:34:37;;;;;;;2.72;0.10;;;7.60;98.60;;;;;;4898168;28;88080;-70
2023/04/16 06:37:03;;;;;;;1.67;0.10;;;7.50;98.60;;;;;;4899816;28;87848;-70
2023/04/16 06:39:29;;;;;;;1.30;0.10;;;7.40;99.00;;;;;;4899868;28;87444;-71
2023/04/16 06:41:56;;;;;;;0.65;0.10;;;7.40;98.90;;;;;;4895575;28;87521;-72
2023/04/16 06:44:21;;;;;;;0.95;0.13;;;7.30;98.90;;;;;;4889918;28;89846;-71
2023/04/16 06:46:47;;;;;;;1.00;0.20;;;7.30;99.90;;;;;;4892581;28;88411;-71
2023/04/16 06:49:13;;;;;;;0.98;0.20;;;7.30;99.90;;;;;;4892296;28;87934;-71
2023/04/16 06:51:38;;;;;;;0.88;0.25;;;7.40;99.90;;;;;;4893670;28;89067;-71
2023/04/16 06:54:04;;;;;;;1.30;0.20;;;7.50;99.80;;;;;;4888677;28;88568;-72
2023/04/16 06:56:31;;;;;;;0.50;0.10;;;7.50;99.60;;;;;;4888495;28;87262;-72
2023/04/16 06:58:57;;;;;;;0.70;0.10;;;7.70;99.40;;;;;;4889376;28;89084;-73
2023/04/16 07:01:23;;;;;;;1.05;0.20;;;7.80;99.00;;;;;;4891564;28;88714;-71
2023/04/16 07:03:49;;;;;;;0.82;0.10;;;7.90;98.70;;;;;;4893001;28;89109;-71
2023/04/16 07:06:15;;;;;;;1.23;0.10;;;8.00;98.50;;;;;;4893295;28;88022;-71
2023/04/16 07:08:40;;;;;;;0.30;0.10;;;7.90;97.30;;;;;;4886824;28;89840;-71
2023/04/16 07:11:06;;;;;;;1.08;0.15;;;7.80;97.00;;;;;;4896294;28;87915;-71
2023/04/16 07:13:32;;;;;;;0.90;0.20;;;7.80;98.20;;;;;;4897557;28;87794;-72
2023/04/16 07:15:57;;;;;;;1.20;0.22;;;7.70;98.10;;;;;;4890340;28;87568;-72
2023/04/16 07:18:23;;;;;;;0.73;0.10;;;7.80;98.50;;;;;;4890136;28;88910;-70
2023/04/16 07:20:49;;;;;;;1.10;0.10;;;7.90;98.00;;;;;;4891286;28;87865;-72
2023/04/16 07:23:15;;;;;;;0.75;0.10;;;8.00;98.70;;;;;;4891673;28;88159;-71
2023/04/16 07:25:40;;;;;;;0.75;0.10;;;8.10;97.40;;;;;;4899619;28;87923;-71
2023/04/16 07:28:07;;;;;;;1.00;0.10;;;8.00;97.00;;;;;;4894898;28;88929;-73
2023/04/16 07:30:37;;;;;;;0.70;0.10;;;8.00;97.70;;;;;;4886395;28;87565;-72
2023/04/16 07:33:03;;;;;;;0.40;0.10;;;8.00;97.60;;;;;;4860441;28;90664;-72
2023/04/16 07:35:29;;;;;;;0.77;0.10;;;8.00;96.60;;;;;;4881146;28;88783;-73
2023/04/16 07:37:55;;;;;;;0.75;0.10;;;8.00;96.30;;;;;;4876836;28;89467;-73
2023/04/16 07:40:25;;;;;;;0.40;0.10;;;8.00;97.90;;;;;;4865368;28;88115;-71
2023/04/16 07:42:51;;;;;;;1.02;0.10;;;8.00;97.20;;;;;;4885568;28;88818;-70
2023/04/16 07:45:18;;;;;;;0.90;0.10;;;8.10;96.80;;;;;;4883175;28;91253;-70
2023/04/16 07:47:45;;;;;;;0.43;0.10;;;8.10;96.40;;;;;;4882976;28;89017;-70
2023/04/16 07:50:13;;;;;;;0.65;0.10;;;8.10;96.80;;;;;;4873220;28;86986;-71
2023/04/16 07:52:41;;;;;;;1.85;0.00;;;8.10;96.60;;;;;;4892917;28;90446;-71
2023/04/16 07:55:07;;;;;;;0.73;0.10;;;8.20;96.20;;;;;;4894977;28;88701;-70
2023/04/16 07:57:33;;;;;;;0.70;0.05;;;8.30;96.10;;;;;;4889547;28;89436;-69
2023/04/16 08:00:01;;;;;;;0.80;0.10;;;8.20;95.80;;;;;;4886584;28;88912;-70
2023/04/16 08:02:27;;;;;;;0.73;0.10;;;8.20;96.10;;;;;;4899381;28;88632;-69
2023/04/16 08:04:52;;;;;;;0.80;0.10;;;8.30;95.10;;;;;;4895763;28;87879;-69
2023/04/16 08:07:18;;;;;;;1.52;0.10;;;8.10;94.60;;;;;;4891479;28;88952;-69
2023/04/16 08:09:48;;;;;;;0.85;0.10;;;8.10;95.30;;;;;;4898149;28;88992;-69
2023/04/16 08:12:15;;;;;;;;;;;8.10;94.80;;;;;;4893247;28;88532;-69
2023/04/16 08:14:40;;;;;;;0.52;0.10;;;8.10;94.90;;;;;;4884514;28;87758;-69
2023/04/16 08:17:06;;;;;;;0.80;0.10;;;8.00;95.00;;;;;;4892758;28;90309;-69
2023/04/16 08:19:32;;;;;;;0.65;0.10;;;7.90;94.80;;;;;;4905078;28;87221;-69
2023/04/16 08:21:58;;;;;;;0.47;0.10;;;7.90;95.70;;;;;;4903880;28;89991;-69
2023/04/16 08:24:24;;;;;;;0.68;0.00;;;8.00;96.30;;;;;;4904977;28;88880;-69
2023/04/16 08:26:50;;;;;;;0.50;0.10;;;8.00;95.10;;;;;;4888730;28;89690;-69
2023/04/16 08:29:16;;;;;;;0.32;0.03;;;8.10;95.00;;;;;;4894187;28;87585;-69
2023/04/16 08:31:41;;;;;;;1.23;0.05;;;8.10;95.20;;;;;;4898219;28;89115;-68
2023/04/16 08:34:10;;;;;;;0.70;0.00;;;8.10;95.40;;;;;;4907055;28;87710;-69
2023/04/16 08:36:35;;;;;;;0.55;0.10;;;8.10;95.50;;;;;;4888701;28;89328;-70
2023/04/16 08:39:01;;;;;;;1.02;0.10;;;8.30;94.70;;;;;;4891886;28;88111;-68
2023/04/16 08:41:31;;;;;;;2.08;0.10;;;8.40;95.10;;;;;;4895670;28;88251;-69
2023/04/16 08:44:01;;;;;;;0.45;0.10;;;8.50;94.50;;;;;;4902298;28;88621;-69
2023/04/16 08:46:28;;;;;;;1.15;0.22;;;8.50;93.90;;;;;;4900869;28;89489;-69
2023/04/16 08:48:55;;;;;;;1.38;0.10;;;8.70;94.00;;;;;;4902347;28;87751;-69
2023/04/16 08:51:22;;;;;;;0.70;0.10;;;8.70;93.20;;;;;;4907146;28;87743;-69
2023/04/16 08:53:52;;;;;;;2.22;0.03;;;8.80;93.00;;;;;;4902094;28;87502;-69
2023/04/16 08:56:21;;;;;;;0.50;0.10;;;8.80;92.60;;;;;;4894170;28;88818;-69
2023/04/16 08:58:49;;;;;;;0.60;0.00;;;8.60;93.50;;;;;;4895547;28;87533;-65
2023/04/16 09:01:17;;;;;;;7.28;0.10;;;8.60;92.90;;;;;;4888427;28;87631;-66
2023/04/16 09:03:45;;;;;;;0.20;0.00;;;8.60;93.50;;;;;;4903465;28;88855;-66
2023/04/16 09:06:12;;;;;;;1.05;0.10;;;8.70;93.60;;;;;;4903388;28;87871;-66
2023/04/16 09:08:39;;;;;;;0.50;0.00;;;8.90;93.30;;;;;;4884054;28;89411;-67
2023/04/16 09:11:05;;;;;;;0.40;0.00;;;9.00;92.90;;;;;;4888033;28;89137;-66
2023/04/16 09:13:31;;;;;;;2.55;0.88;;;9.10;92.70;;;;;;4888604;28;89296;-66
2023/04/16 09:15:58;;;;;;;7.38;2.38;;;9.20;92.80;;;;;;4895475;28;87971;-66
2023/04/16 09:18:24;;;;;;;4.30;1.40;;;9.20;92.70;;;;;;4892718;28;88207;-66
2023/04/16 09:20:51;;;;;;;7.68;2.30;;;9.20;93.00;;;;;;4898984;28;88199;-66
2023/04/16 09:23:17;;;;;;;22.35;6.13;;;9.30;93.00;;;;;;4900253;28;87483;-66
2023/04/16 09:25:43;;;;;;;2.88;0.80;;;9.20;93.30;;;;;;4900833;28;87313;-66
2023/04/16 09:28:11;;;;;;;3.30;1.17;;;9.30;91.80;;;;;;4900048;28;86614;-66
2023/04/16 09:30:37;;;;;;;0.70;0.10;;;9.10;92.00;;;;;;4901082;28;88908;-67
2023/04/16 09:33:15;;;;;;;1.73;0.10;;;9.10;92.00;;;;;;4890159;28;87763;-66
2023/04/16 09:35:48;;;;;;;1.00;0.20;;;9.10;92.30;;;;;;4901472;28;88359;-66
2023/04/16 09:38:14;;;;;;;1.23;0.10;;;9.00;92.20;;;;;;4900779;28;87296;-66
2023/04/16 09:40:43;;;;;;;2.70;0.30;;;9.00;92.30;;;;;;4899787;28;88080;-66
2023/04/16 09:43:11;;;;;;;1.80;0.40;;;9.00;93.30;;;;;;4888950;28;87272;-67
2023/04/16 09:45:51;;;;;;;0.52;0.10;;;9.10;93.00;;;;;;4899623;28;87525;-66
2023/04/16 09:48:31;;;;;;;0.90;0.10;;;9.10;92.50;;;;;;4894870;28;87494;-66
2023/04/16 09:50:59;;;;;;;0.98;0.10;;;9.20;93.30;;;;;;4903324;28;88176;-66
2023/04/16 09:53:29;;;;;;;1.35;0.10;;;9.20;92.40;;;;;;4901171;28;87313;-67
2023/04/16 09:56:00;;;;;;;0.50;0.08;;;9.30;92.80;;;;;;4903266;28;87381;-66
2023/04/16 09:58:26;;;;;;;0.45;0.10;;;9.40;93.30;;;;;;4898070;28;87441;-67
2023/04/16 10:00:59;;;;;;;1.20;0.10;;;9.50;92.60;;;;;;4897953;28;89073;-66
2023/04/16 10:03:33;;;;;;;0.63;0.10;;;9.40;92.80;;;;;;4898385;28;92034;-67
2023/04/16 10:06:05;;;;;;;1.00;0.20;;;9.50;92.80;;;;;;4899056;28;90328;-67
2023/04/16 10:08:31;;;;;;;0.68;0.20;;;9.50;92.40;;;;;;4910049;28;87320;-67
2023/04/16 10:10:57;;;;;;;3.17;0.20;;;9.50;91.80;;;;;;4901853;28;88362;-66
2023/04/16 10:13:26;;;;;;;1.75;0.40;;;9.50;92.90;;;;;;4914190;28;88093;-66
2023/04/16 10:15:58;;;;;;;2.65;0.20;;;9.50;91.60;;;;;;4898370;28;87649;-66
2023/04/16 10:18:25;;;;;;;5.95;1.17;;;9.50;92.20;;;;;;4902916;28;86470;-67
2023/04/16 10:20:51;;;;;;;6.78;1.75;;;9.60;92.10;;;;;;4896657;28;88692;-67
2023/04/16 10:23:20;;;;;;;5.32;0.95;;;9.60;92.20;;;;;;4910728;28;87445;-67
2023/04/16 10:25:47;;;;;;;3.13;0.50;;;9.60;91.80;;;;;;4905255;28;90717;-67
2023/04/16 10:28:13;;;;;;;3.40;0.80;;;9.60;91.80;;;;;;4902118;28;87808;-67
2023/04/16 10:30:41;;;;;;;4.32;0.60;;;9.50;91.60;;;;;;4889056;28;88642;-67
2023/04/16 10:33:08;;;;;;;0.90;0.10;;;9.60;92.20;;;;;;4904607;28;87451;-67
2023/04/16 10:35:39;;;;;;;0.70;0.10;;;9.70;91.90;;;;;;4899991;28;87492;-67
2023/04/16 10:38:36;;;;;;;2.42;0.32;;;9.70;91.50;;;;;;4903053;28;87639;-67
2023/04/16 10:41:03;;;;;;;3.97;0.90;;;9.80;92.10;;;;;;4882055;28;88078;-67
2023/04/16 10:43:31;;;;;;;0.63;0.00;;;10.20;91.60;;;;;;4906158;28;87823;-67
2023/04/16 10:46:29;;;;;;;0.70;0.10;;;10.10;89.30;;;;;;4906751;28;87380;-67
2023/04/16 10:48:58;;;;;;;0.65;0.20;;;10.40;91.00;;;;;;4895045;28;87554;-67
2023/04/16 10:51:31;;;;;;;1.08;0.10;;;10.80;90.70;;;;;;4907361;28;90160;-67
2023/04/16 10:54:02;;;;;;;0.60;0.10;;;11.10;90.10;;;;;;4899416;28;88191;-67
2023/04/16 10:56:31;;;;;;;0.80;0.10;;;11.40;88.60;;;;;;4904657;28;87699;-67
2023/04/16 10:58:57;;;;;;;0.88;0.10;;;11.50;86.40;;;;;;4899947;28;87096;-67
2023/04/16 11:01:35;;;;;;;2.38;0.20;;;11.50;85.00;;;;;;4907026;28;87736;-67
2023/04/16 11:04:20;;;;;;;1.30;0.10;;;11.50;86.90;;;;;;4903338;28;88145;-67
2023/04/16 11:07:14;;;;;;;0.88;0.10;;;11.30;86.50;;;;;;4898436;28;87545;-67
2023/04/16 11:09:52;;;;;;;1.58;0.15;;;11.10;87.80;;;;;;4904809;28;86703;-67
2023/04/16 11:12:28;;;;;;;0.60;0.10;;;11.00;86.50;;;;;;4906533;28;88137;-67
2023/04/16 11:14:59;;;;;;;3.47;0.20;;;10.80;88.40;;;;;;4892542;28;87949;-67
2023/04/16 11:17:29;;;;;;;1.20;0.20;;;10.80;88.40;;;;;;4898204;28;88553;-68
2023/04/16 11:19:55;;;;;;;1.80;0.20;;;10.60;89.30;;;;;;4904151;28;87394;-67
2023/04/16 11:22:21;;;;;;;3.25;0.25;;;10.60;89.40;;;;;;4907735;28;88541;-67
2023/04/16 11:24:52;;;;;;;2.85;0.15;;;10.50;90.30;;;;;;4911451;28;88056;-67
2023/04/16 11:27:18;;;;;;;0.93;0.15;;;10.50;90.00;;;;;;4889947;28;89404;-67
2023/04/16 11:29:43;;;;;;;1.88;0.20;;;10.40;90.40;;;;;;4907170;28;87488;-67
2023/04/16 11:32:09;;;;;;;1.25;0.10;;;10.50;90.10;;;;;;4899497;28;88748;-67
2023/04/16 11:34:45;;;;;;;4.70;0.10;;;10.40;90.60;;;;;;4912924;28;87303;-67
2023/04/16 11:37:11;;;;;;;1.17;0.20;;;10.60;90.30;;;;;;4899774;28;87625;-68
2023/04/16 11:39:52;;;;;;;0.95;0.20;;;10.60;90.60;;;;;;4909836;28;87689;-67
2023/04/16 11:42:20;;;;;;;1.15;0.20;;;10.60;90.50;;;;;;4903719;28;89163;-67
2023/04/16 11:44:45;;;;;;;1.15;0.13;;;10.60;89.90;;;;;;4913041;28;88702;-68
2023/04/16 11:47:12;;;;;;;1.00;0.10;;;10.50;90.10;;;;;;4906787;28;87502;-67
2023/04/16 11:49:38;;;;;;;1.60;0.10;;;10.40;90.40;;;;;;4905259;28;87440;-66
2023/04/16 11:52:03;;;;;;;1.15;0.20;;;10.30;90.20;;;;;;4902241;28;88314;-67
2023/04/16 11:54:33;;;;;;;2.17;0.10;;;10.20;89.90;;;;;;4906856;28;87896;-67
2023/04/16 11:56:59;;;;;;;1.15;0.20;;;10.30;90.90;;;;;;4900363;28;87892;-67
2023/04/16 11:59:25;;;;;;;1.85;0.10;;;10.40;91.20;;;;;;4901151;28;86795;-66
2023/04/16 12:01:55;;;;;;;2.08;0.10;;;10.50;90.30;;;;;;4901592;28;87656;-67
2023/04/16 12:04:23;;;;;;;0.85;0.10;;;10.50;90.10;;;;;;4901331;28;87509;-67
2023/04/16 12:07:12;;;;;;;0.40;0.00;;;10.40;90.10;;;;;;4901901;28;88418;-67
2023/04/16 12:09:41;;;;;;;0.50;0.10;;;10.30;90.00;;;;;;4897227;28;87260;-67
2023/04/16 12:12:25;;;;;;;0.73;0.10;;;10.30;90.00;;;;;;4910431;28;87891;-67
2023/04/16 12:14:51;;;;;;;0.98;0.20;;;10.20;90.30;;;;;;4901726;28;87341;-66
2023/04/16 12:17:20;;;;;;;1.25;0.25;;;10.20;90.40;;;;;;4900953;28;87400;-67
2023/04/16 12:19:55;;;;;;;5.88;0.20;;;10.30;91.10;;;;;;4907905;28;87580;-67
2023/04/16 12:22:33;;;;;;;3.00;0.30;;;10.40;90.90;;;;;;4894008;28;87741;-66
2023/04/16 12:25:26;;;;;;;0.88;0.20;;;10.40;90.30;;;;;;4914314;28;87290;-67
2023/04/16 12:27:54;;;;;;;2.90;0.30;;;10.30;90.70;;;;;;4910343;28;87595;-67
2023/04/16 12:30:22;;;;;;;4.45;0.63;;;10.20;90.80;;;;;;4903920;28;87701;-67
2023/04/16 12:32:50;;;;;;;2.30;0.45;;;10.20;91.60;;;;;;4915059;28;88688;-67
2023/04/16 12:35:32;;;;;;;2.88;0.50;;;10.10;91.50;;;;;;4905653;28;89350;-67
2023/04/16 12:37:59;;;;;;;2.35;0.20;;;10.10;91.00;;;;;;4901162;28;87312;-67
2023/04/16 12:40:25;;;;;;;5.20;0.50;;;10.00;91.00;;;;;;4899662;28;87682;-67
2023/04/16 12:42:51;;;;;;;1.55;0.20;;;10.00;92.00;;;;;;4897259;28;88174;-67
2023/04/16 12:45:17;;;;;;;1.38;0.20;;;10.00;91.30;;;;;;4887348;28;89136;-67
2023/04/16 12:47:43;;;;;;;1.42;0.10;;;9.90;91.40;;;;;;4888365;28;88388;-67
2023/04/16 12:50:09;;;;;;;0.82;0.10;;;9.90;91.70;;;;;;4891322;28;88705;-67
2023/04/16 12:52:35;;;;;;;0.80;0.10;;;9.90;91.90;;;;;;4880384;28;88868;-67
2023/04/16 12:55:01;;;;;;;0.93;0.20;;;9.90;91.90;;;;;;4889878;28;89474;-66
2023/04/16 12:57:27;;;;;;;1.85;0.20;;;9.90;92.30;;;;;;4892628;28;89007;-67
2023/04/16 12:59:57;;;;;;;0.77;0.10;;;10.00;92.80;;;;;;4901202;28;87482;-67
2023/04/16 13:02:23;;;;;;;3.42;0.22;;;10.00;92.40;;;;;;4896679;28;88002;-66
2023/04/16 13:04:50;;;;;;;2.15;0.32;;;10.10;92.90;;;;;;4899603;28;88277;-66
2023/04/16 13:07:17;;;;;;;3.47;0.43;;;10.10;92.60;;;;;;4888626;28;87211;-66
2023/04/16 13:09:43;;;;;;;2.00;0.32;;;10.00;92.60;;;;;;4900137;28;87559;-67
2023/04/16 13:12:08;;;;;;;2.30;0.30;;;9.90;92.30;;;;;;4904807;28;88210;-66
2023/04/16 13:14:34;;;;;;;0.75;0.10;;;9.80;93.10;;;;;;4899169;28;87863;-65
2023/04/16 13:17:00;;;;;;;1.88;0.20;;;9.80;92.90;;;;;;4891959;28;87446;-66
2023/04/16 13:19:25;;;;;;;1.52;0.20;;;9.80;93.20;;;;;;4899047;28;88382;-66
2023/04/16 13:21:51;;;;;;;2.85;0.20;;;9.80;93.00;;;;;;4896886;28;89627;-66
2023/04/16 13:24:18;;;;;;;1.00;0.13;;;9.80;93.00;;;;;;4916709;28;88646;-66
2023/04/16 13:26:43;;;;;;;2.20;0.17;;;9.80;92.60;;;;;;4903309;28;87476;-66
2023/04/16 13:29:09;;;;;;;2.17;0.30;;;9.80;93.20;;;;;;4911745;28;87307;-66
2023/04/16 13:31:35;;;;;;;2.40;0.60;;;9.90;93.30;;;;;;4899907;28;88477;-66
2023/04/16 13:34:02;;;;;;;2.35;0.40;;;9.90;93.90;;;;;;4913890;28;87485;-66
2023/04/16 13:36:29;;;;;;;1.60;0.35;;;10.00;94.10;;;;;;4905833;28;89210;-66
2023/04/16 13:38:55;;;;;;;3.03;0.50;;;10.00;93.50;;;;;;4891423;28;86580;-66
2023/04/16 13:41:21;;;;;;;1.98;0.60;;;10.00;93.40;;;;;;4901881;28;89464;-67
2023/04/16 13:43:46;;;;;;;2.35;0.20;;;9.90;92.80;;;;;;4908947;28;87370;-66
2023/04/16 13:46:12;;;;;;;1.50;0.20;;;9.90;93.50;;;;;;4909611;28;88425;-67
2023/04/16 13:48:38;;;;;;;0.90;0.10;;;9.90;93.20;;;;;;4905897;28;87895;-67
2023/04/16 13:51:03;;;;;;;1.45;0.30;;;9.90;93.10;;;;;;4898670;28;88427;-67
2023/04/16 13:53:29;;;;;;;1.40;0.10;;;9.70;93.10;;;;;;4901462;28;87385;-66
2023/04/16 13:55:55;;;;;;;6.43;3.53;;;9.70;93.70;;;;;;4901094;28;87524;-66
2023/04/16 13:58:21;;;;;;;1.13;0.30;;;9.70;93.90;;;;;;4905440;28;87782;-66
2023/04/16 14:00:46;;;;;;;0.85;0.15;;;9.70;93.30;;;;;;4903951;28;87273;-66
2023/04/16 14:03:12;;;;;;;0.70;0.10;;;9.70;93.30;;;;;;4907266;28;87296;-66
2023/04/16 14:05:38;;;;;;;1.83;0.25;;;9.70;93.70;;;;;;4904476;28;87603;-66
2023/04/16 14:08:04;;;;;;;1.77;0.20;;;9.70;93.40;;;;;;4912290;28;88545;-66
2023/04/16 14:10:30;;;;;;;1.30;0.20;;;9.60;93.40;;;;;;4904393;28;89208;-66
2023/04/16 14:12:56;;;;;;;1.48;0.20;;;9.50;93.80;;;;;;4903552;28;89639;-67
2023/04/16 14:15:22;;;;;;;1.85;0.30;;;9.40;95.00;;;;;;4882000;28;87514;-67
2023/04/16 14:17:48;;;;;;;2.35;0.20;;;9.60;95.70;;;;;;4900479;28;90074;-66
2023/04/16 14:20:13;;;;;;;1.98;0.20;;;9.70;95.90;;;;;;4894097;28;88158;-66
2023/04/16 14:22:41;;;;;;;1.25;0.20;;;9.80;95.10;;;;;;4890088;28;89024;-66
2023/04/16 14:25:07;;;;;;;1.90;0.20;;;9.90;94.90;;;;;;4893340;28;87357;-66
2023/04/16 14:27:33;;;;;;;3.15;0.20;;;10.00;95.00;;;;;;4887438;28;88099;-66
2023/04/16 14:29:59;;;;;;;2.95;0.20;;;10.10;95.60;;;;;;4879326;28;88548;-67
2023/04/16 14:32:25;;;;;;;2.00;0.20;;;10.10;94.30;;;;;;4886958;28;90190;-67
2023/04/16 14:34:51;;;;;;;3.03;0.20;;;10.10;95.40;;;;;;4894473;28;88440;-67
2023/04/16 14:37:17;;;;;;;3.05;0.22;;;10.00;94.60;;;;;;4890686;28;87612;-66
2023/04/16 14:39:43;;;;;;;1.67;0.40;;;10.10;94.60;;;;;;4886325;28;88502;-67
2023/04/16 14:42:10;;;;;;;2.03;0.25;;;10.10;95.00;;;;;;4893829;28;88181;-66
2023/04/16 14:44:35;;;;;;;1.80;0.30;;;10.10;95.20;;;;;;4886447;28;87570;-66
2023/04/16 14:47:01;;;;;;;1.95;0.30;;;10.10;95.40;;;;;;4882929;28;87554;-66
2023/04/16 14:49:27;;;;;;;2.13;0.30;;;10.20;95.00;;;;;;4895685;28;88092;-66
2023/04/16 14:51:53;;;;;;;1.40;0.20;;;10.20;95.30;;;;;;4879737;28;87936;-67
2023/04/16 14:54:20;;;;;;;2.55;0.40;;;10.20;94.80;;;;;;4891280;28;88283;-67
2023/04/16 14:56:46;;;;;;;2.30;0.30;;;10.20;95.40;;;;;;4893981;28;87568;-67
2023/04/16 14:59:12;;;;;;;4.35;0.57;;;10.30;95.20;;;;;;4893497;28;89782;-67
2023/04/16 15:01:41;;;;;;;1.50;0.20;;;10.40;95.30;;;;;;4893528;28;90430;-66
2023/04/16 15:04:07;;;;;;;1.55;0.20;;;10.40;94.10;;;;;;4889569;28;89204;-66
2023/04/16 15:06:34;;;;;;;2.13;0.30;;;10.40;94.40;;;;;;4901084;28;88507;-67
2023/04/16 15:09:01;;;;;;;1.13;0.20;;;10.30;94.10;;;;;;4892915;28;88788;-67
2023/04/16 15:11:27;;;;;;;2.55;0.32;;;10.30;94.60;;;;;;4894455;28;87570;-66
2023/04/16 15:13:53;;;;;;;1.48;0.30;;;10.10;94.60;;;;;;4903665;28;87842;-66
2023/04/16 15:16:19;;;;;;;2.22;0.60;;;10.10;95.20;;;;;;4894726;28;87738;-66
2023/04/16 15:18:44;;;;;;;2.25;0.30;;;10.20;94.70;;;;;;4893871;28;88505;-67
2023/04/16 15:21:10;;;;;;;2.00;0.40;;;10.20;95.40;;;;;;4896240;28;88597;-67
2023/04/16 15:23:36;;;;;;;1.52;0.30;;;10.20;95.40;;;;;;4894098;28;88439;-66
2023/04/16 15:26:01;;;;;;;1.42;0.20;;;10.20;95.30;;;;;;4892959;28;89045;-66
2023/04/16 15:28:27;;;;;;;1.77;0.20;;;10.10;95.40;;;;;;4893329;28;88028;-66
2023/04/16 15:30:54;;;;;;;1.33;0.20;;;10.20;95.30;;;;;;4887251;28;87519;-66
2023/04/16 15:33:20;;;;;;;1.50;0.20;;;10.10;95.50;;;;;;4896074;28;88811;-66
2023/04/16 15:35:46;;;;;;;1.45;0.13;;;10.10;94.90;;;;;;4904418;28;89054;-66
2023/04/16 15:38:12;;;;;;;2.55;0.28;;;10.10;95.30;;;;;;4893979;28;87579;-67
2023/04/16 15:40:37;;;;;;;3.35;0.60;;;10.10;95.60;;;;;;4896330;28;87302;-67
2023/04/16 15:43:05;;;;;;;1.30;0.30;;;10.10;95.50;;;;;;4890466;28;87535;-66
2023/04/16 15:45:31;;;;;;;1.45;0.20;;;10.00;95.60;;;;;;4894980;28;87965;-67
2023/04/16 15:47:56;;;;;;;3.15;0.45;;;10.00;95.60;;;;;;4891139;28;90292;-70
2023/04/16 15:50:24;;;;;;;4.43;0.20;;;9.90;95.90;;;;;;4893639;28;88851;-67
2023/04/16 15:52:50;;;;;;;1.60;0.30;;;9.90;95.90;;;;;;4895220;28;88569;-66
2023/04/16 15:55:16;;;;;;;2.10;0.20;;;9.80;95.70;;;;;;4894083;28;88141;-67
2023/04/16 15:57:42;;;;;;;1.27;0.20;;;9.80;95.80;;;;;;4898579;28;88216;-67